Time;durP1;ratioP1;P1;durP2;ratioP2;P2;SDS_P1;SDS_P2;PMS_P1;PMS_P2;Temp;Humidity;BMP_temperature;BMP_pressure;BME280_temperature;BME280_humidity;BME280_pressure;Samples;Min_cycle;Max_cycle;Signal;HPM_P1;HPM_P2
2021/04/16 00:02:21;;;;;;;8.85;6.60;;;11.80;64.50;;;;;;5034826;28;20490;-67
2021/04/16 00:04:47;;;;;;;10.70;7.15;;;11.80;64.90;;;;;;5034786;28;20102;-69
2021/04/16 00:07:13;;;;;;;9.80;6.15;;;11.70;64.80;;;;;;5034615;28;20379;-66
2021/04/16 00:09:38;;;;;;;10.98;6.78;;;11.70;65.10;;;;;;5033119;28;20037;-68
2021/04/16 00:12:06;;;;;;;9.68;6.50;;;11.70;65.10;;;;;;5034502;28;20417;-68
2021/04/16 00:14:33;;;;;;;8.25;6.00;;;11.70;65.00;;;;;;5034330;28;20041;-67
2021/04/16 00:16:59;;;;;;;11.38;6.38;;;11.60;64.60;;;;;;5034398;28;20022;-67
2021/04/16 00:19:25;;;;;;;9.57;5.97;;;11.50;64.90;;;;;;5034525;28;20029;-66
2021/04/16 00:21:51;;;;;;;9.82;5.80;;;11.50;65.40;;;;;;5034148;28;20041;-67
2021/04/16 00:24:17;;;;;;;8.55;5.45;;;11.50;65.20;;;;;;5034469;28;20057;-67
2021/04/16 00:26:43;;;;;;;8.13;5.32;;;11.40;65.20;;;;;;5032998;28;20360;-67
2021/04/16 00:29:09;;;;;;;8.48;5.18;;;11.40;65.40;;;;;;5033051;28;20051;-68
2021/04/16 00:31:36;;;;;;;8.63;4.95;;;11.40;65.40;;;;;;5034095;28;20022;-67
2021/04/16 00:34:03;;;;;;;8.60;5.63;;;11.50;65.30;;;;;;5034108;28;20095;-66
2021/04/16 00:36:30;;;;;;;8.35;5.55;;;11.50;65.30;;;;;;5034195;28;20474;-67
2021/04/16 00:38:57;;;;;;;7.82;5.47;;;11.50;64.60;;;;;;5034119;28;20064;-69
2021/04/16 00:41:29;;;;;;;8.40;5.65;;;11.60;64.80;;;;;;5032674;28;20112;-67
2021/04/16 00:43:55;;;;;;;9.05;5.75;;;11.70;64.70;;;;;;5034314;28;20538;-67
2021/04/16 00:46:31;;;;;;;7.65;5.80;;;11.70;64.60;;;;;;5033967;28;20052;-67
2021/04/16 00:49:00;;;;;;;11.23;6.57;;;11.80;64.30;;;;;;5034325;28;20061;-67
2021/04/16 00:51:38;;;;;;;9.18;6.55;;;11.90;64.20;;;;;;5033942;28;20466;-68
2021/04/16 00:54:05;;;;;;;8.85;6.60;;;11.70;64.90;;;;;;5033704;28;20402;-68
2021/04/16 00:56:31;;;;;;;9.50;7.05;;;11.60;64.80;;;;;;5033628;28;20078;-67
2021/04/16 00:58:58;;;;;;;8.52;6.80;;;11.60;64.90;;;;;;5033939;28;20029;-68
2021/04/16 01:01:25;;;;;;;11.30;8.27;;;11.60;65.00;;;;;;5033409;28;20029;-67
2021/04/16 01:03:51;;;;;;;10.05;7.78;;;11.60;64.90;;;;;;5033665;28;20028;-67
2021/04/16 01:06:19;;;;;;;11.63;7.53;;;11.60;65.40;;;;;;5033735;28;20022;-68
2021/04/16 01:08:45;;;;;;;10.95;7.93;;;11.60;65.30;;;;;;5033502;28;20017;-67
2021/04/16 01:11:10;;;;;;;11.25;8.75;;;11.70;65.30;;;;;;5032719;28;20590;-67
2021/04/16 01:13:37;;;;;;;12.23;8.73;;;11.50;65.10;;;;;;5033602;28;20029;-67
2021/04/16 01:16:05;;;;;;;11.32;8.38;;;11.40;65.50;;;;;;5033481;28;20076;-68
2021/04/16 01:18:40;;;;;;;12.77;8.77;;;11.50;65.90;;;;;;5033635;28;20429;-69
2021/04/16 01:21:10;;;;;;;12.13;8.60;;;11.40;65.80;;;;;;5033161;28;20471;-68
2021/04/16 01:23:55;;;;;;;12.07;8.50;;;11.50;65.70;;;;;;5033540;28;20028;-68
2021/04/16 01:26:27;;;;;;;11.70;9.00;;;11.60;66.10;;;;;;5033748;28;20033;-68
2021/04/16 01:28:54;;;;;;;13.30;8.40;;;11.60;65.30;;;;;;5031944;28;20029;-68
2021/04/16 01:31:23;;;;;;;11.85;8.82;;;11.60;65.30;;;;;;5033371;28;20025;-67
2021/04/16 01:33:49;;;;;;;9.52;7.70;;;11.60;64.80;;;;;;5033140;28;20030;-68
2021/04/16 01:36:35;;;;;;;12.18;8.55;;;11.50;65.30;;;;;;5032207;28;20466;-68
2021/04/16 01:39:05;;;;;;;13.70;8.95;;;11.60;65.20;;;;;;5032791;28;20120;-67
2021/04/16 01:41:31;;;;;;;10.50;8.52;;;11.60;65.10;;;;;;5032961;28;20028;-67
2021/04/16 01:44:08;;;;;;;9.90;7.70;;;11.60;64.60;;;;;;5033069;28;20026;-67
2021/04/16 01:46:57;;;;;;;10.90;7.55;;;11.50;65.20;;;;;;5033018;28;20034;-67
2021/04/16 01:49:25;;;;;;;13.48;8.30;;;11.50;64.90;;;;;;5032863;28;20487;-68
2021/04/16 01:51:51;;;;;;;12.27;8.30;;;11.50;64.80;;;;;;5032713;28;20029;-68
2021/04/16 01:54:36;;;;;;;10.40;7.72;;;11.40;64.40;;;;;;5032767;28;20132;-68
2021/04/16 01:57:08;;;;;;;11.32;7.88;;;11.40;65.30;;;;;;5033238;28;20366;-67
2021/04/16 01:59:36;;;;;;;10.38;8.07;;;11.40;64.70;;;;;;5032735;28;20030;-67
2021/04/16 02:02:05;;;;;;;11.68;8.20;;;11.20;64.60;;;;;;5032728;28;20033;-67
2021/04/16 02:04:30;;;;;;;11.65;8.07;;;11.20;65.00;;;;;;5032753;28;20063;-67
2021/04/16 02:06:56;;;;;;;10.38;7.70;;;11.10;65.10;;;;;;5032725;28;20026;-67
2021/04/16 02:09:26;;;;;;;11.43;7.80;;;11.10;65.10;;;;;;5032852;28;20033;-67
2021/04/16 02:11:53;;;;;;;11.38;7.88;;;11.10;65.30;;;;;;5032614;28;20033;-68
2021/04/16 02:14:23;;;;;;;10.88;7.55;;;11.10;65.20;;;;;;5032805;28;20037;-67
2021/04/16 02:16:53;;;;;;;10.45;7.82;;;11.10;64.80;;;;;;5032648;28;20072;-67
2021/04/16 02:19:20;;;;;;;9.70;7.93;;;11.00;65.10;;;;;;5032620;28;20028;-67
2021/04/16 02:21:45;;;;;;;10.45;7.75;;;11.00;65.40;;;;;;5034322;28;20052;-67
2021/04/16 02:24:12;;;;;;;11.98;8.13;;;11.00;65.40;;;;;;5036643;28;20037;-68
2021/04/16 02:26:39;;;;;;;11.27;7.60;;;10.90;65.40;;;;;;5035139;28;20044;-67
2021/04/16 02:29:07;;;;;;;9.50;7.55;;;10.80;65.20;;;;;;5036411;28;20072;-67
2021/04/16 02:31:33;;;;;;;10.73;7.15;;;10.80;65.40;;;;;;5036170;28;20069;-66
2021/04/16 02:33:59;;;;;;;10.18;7.40;;;10.80;65.40;;;;;;5036264;28;20483;-66
2021/04/16 02:36:25;;;;;;;11.05;7.07;;;10.80;65.60;;;;;;5036298;28;20022;-68
2021/04/16 02:38:55;;;;;;;9.18;7.13;;;10.90;65.50;;;;;;5036491;28;20132;-66
2021/04/16 02:41:21;;;;;;;10.68;6.70;;;10.90;65.30;;;;;;5036289;28;20040;-66
2021/04/16 02:43:48;;;;;;;10.68;7.55;;;10.80;65.20;;;;;;5036499;28;20029;-68
2021/04/16 02:46:14;;;;;;;11.90;6.85;;;10.90;65.30;;;;;;5036046;28;20113;-68
2021/04/16 02:48:39;;;;;;;11.23;6.97;;;10.90;64.90;;;;;;5036273;28;20061;-68
2021/04/16 02:51:06;;;;;;;10.02;6.50;;;11.00;64.80;;;;;;5035936;28;20026;-67
2021/04/16 02:53:32;;;;;;;8.63;6.45;;;11.00;64.60;;;;;;5035834;28;20095;-67
2021/04/16 02:55:58;;;;;;;11.32;6.88;;;10.90;64.30;;;;;;5035820;28;20021;-68
2021/04/16 02:58:23;;;;;;;12.02;6.85;;;10.90;64.20;;;;;;5035823;28;20544;-68
2021/04/16 03:00:49;;;;;;;9.40;6.97;;;10.90;64.20;;;;;;5034588;28;20021;-67
2021/04/16 03:03:15;;;;;;;10.35;6.60;;;10.90;64.70;;;;;;5035765;28;20033;-68
2021/04/16 03:05:40;;;;;;;9.43;7.03;;;10.80;64.20;;;;;;5036181;28;20064;-68
2021/04/16 03:08:06;;;;;;;9.48;6.55;;;10.80;64.70;;;;;;5035651;28;20022;-67
2021/04/16 03:10:34;;;;;;;8.60;6.38;;;10.70;64.50;;;;;;5035514;28;20442;-67
2021/04/16 03:13:00;;;;;;;12.30;6.60;;;10.80;65.00;;;;;;5035656;28;20036;-66
2021/04/16 03:15:26;;;;;;;10.60;6.68;;;10.80;64.70;;;;;;5035686;28;20445;-67
2021/04/16 03:17:52;;;;;;;8.02;6.25;;;10.80;64.60;;;;;;5035498;28;20033;-67
2021/04/16 03:20:22;;;;;;;7.85;5.95;;;10.70;64.40;;;;;;5035102;28;20059;-68
2021/04/16 03:22:47;;;;;;;11.85;6.28;;;10.80;64.70;;;;;;5035074;28;20052;-67
2021/04/16 03:25:14;;;;;;;8.50;6.55;;;10.70;64.50;;;;;;5035289;28;20025;-66
2021/04/16 03:27:41;;;;;;;9.63;5.75;;;10.60;64.60;;;;;;5035314;28;20017;-67
2021/04/16 03:30:10;;;;;;;10.18;6.43;;;10.60;64.60;;;;;;5034980;28;20382;-67
2021/04/16 03:32:36;;;;;;;10.40;6.25;;;10.50;64.40;;;;;;5033919;28;20033;-67
2021/04/16 03:35:01;;;;;;;8.10;5.95;;;10.40;64.70;;;;;;5035094;28;20038;-68
2021/04/16 03:37:27;;;;;;;10.82;5.88;;;10.40;65.20;;;;;;5035280;28;20026;-67
2021/04/16 03:39:53;;;;;;;11.45;6.90;;;10.30;65.30;;;;;;5034930;28;20368;-67
2021/04/16 03:42:18;;;;;;;10.75;6.75;;;10.20;65.40;;;;;;5033934;28;20021;-68
2021/04/16 03:44:44;;;;;;;8.40;6.63;;;10.10;66.10;;;;;;5035066;28;20024;-67
2021/04/16 03:47:10;;;;;;;10.85;6.88;;;10.00;66.20;;;;;;5034763;28;20103;-67
2021/04/16 03:49:36;;;;;;;10.88;7.20;;;10.00;66.50;;;;;;5035118;28;20025;-68
2021/04/16 03:52:04;;;;;;;10.88;7.38;;;10.10;66.90;;;;;;5034704;28;20041;-65
2021/04/16 03:54:29;;;;;;;12.30;7.70;;;10.10;66.40;;;;;;5034812;28;20378;-67
2021/04/16 03:56:56;;;;;;;9.40;7.65;;;10.10;67.40;;;;;;5034824;28;20037;-67
2021/04/16 03:59:23;;;;;;;10.45;7.45;;;10.20;66.60;;;;;;5034815;28;20033;-68
2021/04/16 04:01:50;;;;;;;11.18;8.20;;;10.30;66.70;;;;;;5034407;28;20033;-68
2021/04/16 04:04:17;;;;;;;9.80;8.27;;;10.10;66.60;;;;;;5034460;28;20092;-68
2021/04/16 04:06:43;;;;;;;13.93;8.57;;;10.20;66.90;;;;;;5034395;28;20447;-67
2021/04/16 04:09:09;;;;;;;12.10;8.15;;;10.10;66.60;;;;;;5034505;28;20104;-68
2021/04/16 04:11:35;;;;;;;12.98;8.85;;;10.20;66.80;;;;;;5034116;28;20419;-67
2021/04/16 04:14:01;;;;;;;11.82;9.43;;;10.20;67.00;;;;;;5034306;28;20044;-68
2021/04/16 04:16:28;;;;;;;15.00;9.13;;;10.20;66.70;;;;;;5034494;28;20388;-68
2021/04/16 04:18:54;;;;;;;13.95;9.95;;;10.20;67.00;;;;;;5033988;28;20060;-68
2021/04/16 04:21:19;;;;;;;12.48;9.18;;;10.20;66.80;;;;;;5034250;28;20510;-68
2021/04/16 04:23:45;;;;;;;12.35;8.77;;;10.20;66.90;;;;;;5034118;28;20029;-67
2021/04/16 04:26:11;;;;;;;14.57;9.35;;;10.20;67.00;;;;;;5034117;28;20423;-67
2021/04/16 04:28:37;;;;;;;15.90;9.98;;;10.30;67.00;;;;;;5034034;28;20055;-68
2021/04/16 04:31:02;;;;;;;11.88;8.70;;;10.20;67.00;;;;;;5034370;28;20022;-68
2021/04/16 04:33:28;;;;;;;12.32;10.05;;;10.10;67.20;;;;;;5034094;28;20032;-67
2021/04/16 04:35:54;;;;;;;14.13;9.48;;;10.20;67.80;;;;;;5033914;28;20044;-68
2021/04/16 04:38:20;;;;;;;14.82;9.40;;;10.20;67.20;;;;;;5034056;28;20018;-68
2021/04/16 04:40:46;;;;;;;12.85;10.20;;;10.10;67.20;;;;;;5033788;28;20478;-67
2021/04/16 04:43:12;;;;;;;14.90;9.98;;;10.10;67.20;;;;;;5032455;28;20029;-66
2021/04/16 04:45:38;;;;;;;13.30;9.88;;;10.10;67.30;;;;;;5033696;28;20025;-67
2021/04/16 04:48:04;;;;;;;12.93;10.00;;;10.20;67.30;;;;;;5033798;28;20534;-67
2021/04/16 04:50:29;;;;;;;12.73;10.23;;;10.30;66.90;;;;;;5033554;28;20478;-68
2021/04/16 04:52:56;;;;;;;12.10;9.43;;;10.20;66.70;;;;;;5033810;28;20029;-68
2021/04/16 04:55:28;;;;;;;14.50;9.90;;;10.20;66.70;;;;;;5033923;28;20060;-67
2021/04/16 04:57:54;;;;;;;12.60;9.70;;;10.20;66.90;;;;;;5033765;28;20053;-67
2021/04/16 05:00:19;;;;;;;13.20;10.00;;;10.20;66.90;;;;;;5033489;28;20029;-68
2021/04/16 05:02:45;;;;;;;16.17;10.77;;;10.10;67.00;;;;;;5033806;28;20386;-68
2021/04/16 05:05:13;;;;;;;14.68;9.80;;;10.20;66.70;;;;;;5033715;28;20084;-69
2021/04/16 05:07:39;;;;;;;13.70;9.02;;;10.30;66.70;;;;;;5033755;28;20037;-68
2021/04/16 05:10:06;;;;;;;12.73;9.35;;;10.30;66.30;;;;;;5033581;28;20030;-67
2021/04/16 05:12:32;;;;;;;12.70;8.52;;;10.30;66.20;;;;;;5032185;28;20033;-67
2021/04/16 05:14:57;;;;;;;10.73;8.35;;;10.40;66.20;;;;;;5033431;28;20033;-68
2021/04/16 05:17:23;;;;;;;11.63;7.75;;;10.50;65.90;;;;;;5033411;28;20112;-67
2021/04/16 05:19:49;;;;;;;12.40;8.07;;;10.60;65.50;;;;;;5032017;28;20032;-68
2021/04/16 05:22:15;;;;;;;15.48;8.52;;;10.60;64.90;;;;;;5033264;28;20060;-67
2021/04/16 05:24:41;;;;;;;14.95;8.38;;;10.60;64.90;;;;;;5033294;28;20108;-67
2021/04/16 05:27:13;;;;;;;15.55;8.45;;;10.60;64.90;;;;;;5033361;28;20131;-67
2021/04/16 05:29:38;;;;;;;10.35;8.50;;;10.60;64.60;;;;;;5032990;28;20100;-67
2021/04/16 05:32:05;;;;;;;12.40;8.00;;;10.60;64.50;;;;;;5032952;28;20108;-68
2021/04/16 05:34:31;;;;;;;11.77;7.85;;;10.50;64.40;;;;;;5033044;28;20045;-67
2021/04/16 05:36:57;;;;;;;12.38;8.02;;;10.40;64.70;;;;;;5033517;28;20025;-68
2021/04/16 05:39:23;;;;;;;11.02;8.00;;;10.60;65.00;;;;;;5033194;28;20033;-69
2021/04/16 05:41:48;;;;;;;13.52;9.02;;;10.70;64.70;;;;;;5033134;28;20104;-67
2021/04/16 05:44:14;;;;;;;11.50;8.13;;;10.80;64.30;;;;;;5033312;28;20101;-68
2021/04/16 05:46:40;;;;;;;11.90;9.05;;;10.80;64.10;;;;;;5033092;28;20028;-68
2021/04/16 05:49:06;;;;;;;15.50;9.05;;;10.90;64.00;;;;;;5033253;28;20062;-67
2021/04/16 05:51:33;;;;;;;13.73;8.52;;;10.90;63.80;;;;;;5032820;28;20356;-70
2021/04/16 05:53:59;;;;;;;11.02;8.80;;;11.00;63.90;;;;;;5032757;28;20096;-69
2021/04/16 05:56:24;;;;;;;10.65;7.72;;;11.00;63.40;;;;;;5034608;28;20057;-70
2021/04/16 05:58:50;;;;;;;11.30;8.15;;;11.00;63.00;;;;;;5036599;28;20022;-67
2021/04/16 06:01:16;;;;;;;12.93;8.75;;;11.10;62.80;;;;;;5036487;28;20049;-68
2021/04/16 06:03:45;;;;;;;13.90;8.52;;;11.20;63.00;;;;;;5036575;28;20056;-68
2021/04/16 06:06:10;;;;;;;14.25;7.68;;;11.30;62.40;;;;;;5036849;28;20030;-67
2021/04/16 06:08:36;;;;;;;11.85;7.80;;;11.30;62.00;;;;;;5036367;28;20536;-69
2021/04/16 06:11:02;;;;;;;12.05;7.63;;;11.30;61.70;;;;;;5036194;28;20056;-68
2021/04/16 06:13:29;;;;;;;13.38;7.10;;;11.40;61.50;;;;;;5036079;28;20508;-68
2021/04/16 06:15:55;;;;;;;9.73;7.85;;;11.40;61.10;;;;;;5036314;28;20116;-72
2021/04/16 06:18:22;;;;;;;11.63;8.40;;;11.40;61.10;;;;;;5036293;28;20105;-67
2021/04/16 06:20:49;;;;;;;12.13;8.25;;;11.50;60.90;;;;;;5035768;28;20029;-68
2021/04/16 06:23:15;;;;;;;12.23;8.07;;;11.50;60.70;;;;;;5036066;28;20030;-67
2021/04/16 06:25:41;;;;;;;14.40;7.75;;;11.50;60.90;;;;;;5035503;28;20167;-68
2021/04/16 06:28:07;;;;;;;13.02;8.02;;;11.50;60.90;;;;;;5036204;28;20029;-67
2021/04/16 06:30:33;;;;;;;10.23;6.78;;;11.40;60.70;;;;;;5036603;28;20386;-69
2021/04/16 06:33:02;;;;;;;12.25;7.70;;;11.50;60.60;;;;;;5036179;28;20036;-69
2021/04/16 06:35:28;;;;;;;12.07;7.32;;;11.60;60.60;;;;;;5036253;28;20029;-67
2021/04/16 06:37:54;;;;;;;11.95;7.05;;;11.70;60.50;;;;;;5036059;28;20467;-69
2021/04/16 06:40:20;;;;;;;11.23;7.20;;;11.80;60.20;;;;;;5035867;28;20507;-68
2021/04/16 06:42:46;;;;;;;10.38;7.60;;;11.90;60.00;;;;;;5035124;28;20021;-67
2021/04/16 06:45:21;;;;;;;13.23;6.82;;;11.90;59.70;;;;;;5034811;28;20029;-68
2021/04/16 06:48:02;;;;;;;14.00;7.40;;;12.00;59.50;;;;;;5035908;28;20022;-69
2021/04/16 06:50:33;;;;;;;9.82;7.45;;;12.00;59.30;;;;;;5035399;28;20036;-68
2021/04/16 06:53:16;;;;;;;14.93;7.68;;;12.10;59.20;;;;;;5035559;28;20387;-68
2021/04/16 06:55:53;;;;;;;18.48;7.85;;;12.10;59.80;;;;;;5035661;28;20512;-67
2021/04/16 06:58:30;;;;;;;9.98;6.72;;;12.10;59.90;;;;;;5035665;28;20091;-69
2021/04/16 07:01:13;;;;;;;15.40;6.78;;;12.00;59.80;;;;;;5035449;28;20178;-68
2021/04/16 07:03:44;;;;;;;12.02;6.88;;;12.00;59.80;;;;;;5035561;28;20013;-68
2021/04/16 07:06:20;;;;;;;10.40;7.10;;;12.00;59.10;;;;;;5035417;28;20026;-71
2021/04/16 07:08:54;;;;;;;11.85;6.95;;;12.10;59.70;;;;;;5034042;28;20463;-69
2021/04/16 07:11:40;;;;;;;11.73;6.90;;;12.20;59.30;;;;;;5035104;28;20079;-69
2021/04/16 07:14:20;;;;;;;12.20;7.03;;;12.30;59.70;;;;;;5035184;28;20041;-68
2021/04/16 07:16:45;;;;;;;10.23;7.05;;;12.40;59.10;;;;;;5035213;28;20029;-67
2021/04/16 07:19:17;;;;;;;11.80;7.30;;;12.40;59.00;;;;;;5035384;28;20034;-68
2021/04/16 07:21:43;;;;;;;11.98;6.88;;;12.40;59.00;;;;;;5034459;28;20049;-67
2021/04/16 07:24:13;;;;;;;10.52;6.60;;;12.50;59.20;;;;;;5035448;28;20030;-68
2021/04/16 07:26:59;;;;;;;9.65;6.53;;;12.60;58.90;;;;;;5034822;28;20501;-68
2021/04/16 07:29:42;;;;;;;8.40;6.18;;;12.60;58.60;;;;;;5035289;28;20026;-68
2021/04/16 07:32:34;;;;;;;11.35;6.40;;;12.60;58.50;;;;;;5034676;28;20034;-68
2021/04/16 07:35:20;;;;;;;11.68;5.50;;;12.70;58.50;;;;;;5034712;28;20048;-69
2021/04/16 07:38:00;;;;;;;20.58;7.03;;;12.90;58.00;;;;;;5034955;28;20029;-71
2021/04/16 07:40:40;;;;;;;9.98;5.05;;;13.00;57.70;;;;;;5034710;28;20033;-67
2021/04/16 07:43:06;;;;;;;9.18;5.50;;;13.00;57.10;;;;;;5034899;28;20041;-69
2021/04/16 07:45:41;;;;;;;10.30;5.68;;;13.00;57.00;;;;;;5034895;28;20485;-68
2021/04/16 07:48:19;;;;;;;9.68;6.30;;;13.00;56.60;;;;;;5034462;28;20490;-68
2021/04/16 07:50:44;;;;;;;9.55;5.18;;;13.00;56.50;;;;;;5034504;28;20029;-69
2021/04/16 07:53:28;;;;;;;11.40;5.95;;;13.10;56.50;;;;;;5034297;28;20528;-68
2021/04/16 07:56:23;;;;;;;10.45;6.18;;;13.10;56.60;;;;;;5033045;28;20419;-68
2021/04/16 07:59:10;;;;;;;16.02;6.35;;;13.00;56.10;;;;;;5021700;28;20172;-69
2021/04/16 08:01:41;;;;;;;11.75;6.55;;;13.10;56.60;;;;;;5034400;28;20554;-68
2021/04/16 08:04:13;;;;;;;8.70;6.00;;;13.20;56.50;;;;;;5034128;28;20022;-68
2021/04/16 08:06:44;;;;;;;10.38;6.38;;;13.20;56.30;;;;;;5033964;28;20029;-68
2021/04/16 08:09:26;;;;;;;13.75;6.20;;;13.20;56.20;;;;;;5034342;28;20036;-68
2021/04/16 08:12:14;;;;;;;11.07;6.07;;;13.40;56.30;;;;;;5032671;28;20537;-69
2021/04/16 08:14:42;;;;;;;8.68;6.47;;;13.50;55.90;;;;;;5032391;28;20038;-68
2021/04/16 08:17:22;;;;;;;11.65;6.22;;;13.60;55.90;;;;;;5033910;28;20511;-67
2021/04/16 08:19:48;;;;;;;9.93;5.95;;;13.60;55.60;;;;;;5033513;28;20138;-69
2021/04/16 08:22:30;;;;;;;8.98;6.35;;;13.80;55.20;;;;;;5033362;28;20466;-68
2021/04/16 08:25:03;;;;;;;9.63;6.35;;;13.90;55.30;;;;;;5033505;28;20370;-69
2021/04/16 08:27:51;;;;;;;11.02;6.68;;;13.90;55.30;;;;;;5033777;28;20021;-69
2021/04/16 08:30:27;;;;;;;8.48;6.20;;;14.00;55.50;;;;;;5032179;28;20025;-68
2021/04/16 08:33:21;;;;;;;8.75;6.03;;;14.10;54.80;;;;;;5031974;28;20537;-68
2021/04/16 08:36:19;;;;;;;;;;;14.10;54.70;;;;;;5033674;28;20074;-70
2021/04/16 08:39:10;;;;;;;8.68;6.35;;;14.10;54.10;;;;;;5020998;28;19909;-67
2021/04/16 08:41:52;;;;;;;9.30;6.38;;;14.00;54.50;;;;;;5033362;28;20101;-68
2021/04/16 08:44:18;;;;;;;9.88;6.22;;;14.10;54.50;;;;;;5033232;28;20032;-67
2021/04/16 08:46:50;;;;;;;11.38;6.18;;;14.10;54.40;;;;;;5033504;28;20479;-69
2021/04/16 08:49:34;;;;;;;9.90;6.25;;;14.20;54.20;;;;;;5033258;28;20052;-68
2021/04/16 08:52:27;;;;;;;8.77;6.18;;;14.30;54.70;;;;;;5033658;28;20044;-68
2021/04/16 08:54:54;;;;;;;10.40;6.40;;;14.30;54.50;;;;;;5033639;28;20037;-69
2021/04/16 08:57:33;;;;;;;12.15;6.47;;;14.40;53.60;;;;;;5033180;28;20037;-68
2021/04/16 09:00:12;;;;;;;12.13;6.68;;;14.40;53.70;;;;;;5033065;28;20017;-69
2021/04/16 09:02:44;;;;;;;10.35;6.55;;;14.50;53.80;;;;;;5033210;28;20068;-69
2021/04/16 09:05:12;;;;;;;10.40;6.28;;;14.60;53.80;;;;;;5033340;28;20022;-68
2021/04/16 09:07:41;;;;;;;9.95;6.72;;;14.70;53.90;;;;;;5032904;28;20049;-68
2021/04/16 09:10:29;;;;;;;11.05;6.85;;;14.80;53.30;;;;;;5033103;28;20021;-68
2021/04/16 09:12:58;;;;;;;10.45;6.82;;;14.80;53.80;;;;;;5023360;28;20060;-67
2021/04/16 09:15:33;;;;;;;11.55;6.97;;;14.80;53.20;;;;;;5033104;28;20410;-68
2021/04/16 09:17:58;;;;;;;11.63;7.05;;;14.80;54.10;;;;;;5032875;28;20025;-68
2021/04/16 09:20:33;;;;;;;11.50;6.25;;;15.00;53.70;;;;;;5032600;28;20037;-69
2021/04/16 09:23:00;;;;;;;12.50;6.72;;;15.00;53.70;;;;;;5033231;28;20128;-69
2021/04/16 09:25:32;;;;;;;10.93;5.72;;;15.00;52.90;;;;;;5032862;28;20036;-68
2021/04/16 09:28:22;;;;;;;10.55;5.80;;;15.10;53.20;;;;;;5033287;28;20399;-69
2021/04/16 09:30:52;;;;;;;10.63;6.15;;;15.30;53.60;;;;;;5032121;28;20160;-70
2021/04/16 09:33:37;;;;;;;10.95;6.30;;;15.50;52.90;;;;;;5033032;28;20029;-70
2021/04/16 09:36:07;;;;;;;11.43;5.90;;;15.60;52.80;;;;;;5031638;28;20482;-68
2021/04/16 09:38:36;;;;;;;10.77;5.53;;;15.80;52.20;;;;;;5032777;28;20027;-69
2021/04/16 09:41:20;;;;;;;9.38;5.35;;;15.90;52.20;;;;;;5032558;28;20348;-68
2021/04/16 09:43:47;;;;;;;;;;;15.90;52.20;;;;;;5033078;28;20024;-70
2021/04/16 09:46:30;;;;;;;12.93;5.95;;;16.00;50.60;;;;;;5032682;28;19955;-70
2021/04/16 09:49:01;;;;;;;12.65;5.05;;;16.20;51.40;;;;;;5032710;28;20026;-70
2021/04/16 09:51:45;;;;;;;9.20;5.20;;;16.20;51.30;;;;;;5030875;28;20026;-70
2021/04/16 09:54:13;;;;;;;9.95;4.80;;;16.30;50.90;;;;;;5032346;28;20052;-69
2021/04/16 09:56:59;;;;;;;10.55;5.00;;;16.40;50.30;;;;;;5032639;28;20096;-68
2021/04/16 09:59:32;;;;;;;8.25;4.90;;;16.50;50.40;;;;;;5032584;28;20104;-70
2021/04/16 10:02:12;;;;;;;6.63;4.35;;;16.60;50.20;;;;;;5032290;28;20100;-68
2021/04/16 10:04:59;;;;;;;8.55;4.32;;;16.60;49.30;;;;;;5032543;28;20029;-68
2021/04/16 10:07:47;;;;;;;8.07;4.35;;;16.70;49.20;;;;;;5032478;28;20157;-69
2021/04/16 10:10:33;;;;;;;9.15;4.13;;;16.80;48.10;;;;;;5032292;28;20088;-69
2021/04/16 10:13:29;;;;;;;8.88;4.93;;;16.80;48.80;;;;;;5031608;28;20029;-67
2021/04/16 10:15:58;;;;;;;9.52;4.38;;;16.90;49.00;;;;;;5032304;28;20092;-68
2021/04/16 10:18:32;;;;;;;7.63;4.43;;;17.00;48.10;;;;;;5032226;28;20100;-68
2021/04/16 10:21:07;;;;;;;8.65;3.90;;;17.00;47.70;;;;;;5030425;28;20026;-69
2021/04/16 10:23:35;;;;;;;6.60;4.22;;;17.00;47.70;;;;;;5032688;28;20053;-68
2021/04/16 11:32:48;;;;;;;6.43;2.70;;;18.00;42.10;;;;;;5036011;28;20032;-68
2021/04/16 12:41:11;;;;;;;7.65;3.33;;;19.00;37.20;;;;;;5034660;28;19905;-70
2021/04/16 12:43:37;;;;;;;7.40;3.17;;;19.00;39.10;;;;;;5034297;28;20470;-67
2021/04/16 12:46:05;;;;;;;7.32;3.20;;;19.10;38.50;;;;;;5034018;28;20444;-69
2021/04/16 12:48:31;;;;;;;7.47;3.53;;;19.10;39.00;;;;;;5034181;28;20490;-70
2021/04/16 12:50:57;;;;;;;5.68;2.75;;;19.10;38.20;;;;;;5033507;28;20145;-71
2021/04/16 12:53:22;;;;;;;7.18;3.20;;;19.10;37.80;;;;;;5033621;28;20068;-68
2021/04/16 12:55:49;;;;;;;9.80;3.08;;;19.00;37.50;;;;;;5033617;28;20094;-69
2021/04/16 12:58:29;;;;;;;5.85;3.03;;;19.00;37.90;;;;;;5033678;28;20033;-68
2021/04/16 13:00:55;;;;;;;6.28;3.47;;;19.10;38.00;;;;;;5033444;28;20054;-69
2021/04/16 13:03:27;;;;;;;11.18;3.33;;;19.10;38.10;;;;;;5032171;28;20022;-69
2021/04/16 13:06:34;;;;;;;7.85;3.85;;;19.10;37.40;;;;;;5033990;28;20037;-68
2021/04/16 13:09:00;;;;;;;7.80;3.33;;;19.20;37.90;;;;;;5032744;28;20041;-68
2021/04/16 13:11:34;;;;;;;5.32;3.13;;;19.30;37.80;;;;;;5033955;28;20071;-70
2021/04/16 13:14:04;;;;;;;6.03;3.40;;;19.30;37.30;;;;;;5033377;28;20124;-69
2021/04/16 13:16:30;;;;;;;7.18;3.42;;;19.30;36.20;;;;;;5016492;28;20030;-68
2021/04/16 13:18:59;;;;;;;10.77;3.75;;;19.20;37.40;;;;;;5033208;28;20312;-68
2021/04/16 13:21:32;;;;;;;9.00;3.97;;;19.20;37.40;;;;;;5032820;28;20504;-69
2021/04/16 13:23:59;;;;;;;6.95;3.42;;;19.10;37.50;;;;;;5031880;28;20112;-70
2021/04/16 13:26:25;;;;;;;5.70;3.15;;;19.10;37.10;;;;;;5033006;28;20029;-69
2021/04/16 13:28:51;;;;;;;7.13;3.42;;;19.20;37.70;;;;;;5033117;28;20029;-68
2021/04/16 13:31:30;;;;;;;10.65;3.13;;;19.20;37.40;;;;;;5033039;28;20032;-70
2021/04/16 13:34:03;;;;;;;7.32;3.13;;;19.20;37.00;;;;;;5034175;28;20033;-69
2021/04/16 13:36:31;;;;;;;6.93;3.30;;;19.20;36.60;;;;;;5032949;28;20029;-69
2021/04/16 13:39:07;;;;;;;9.18;3.60;;;19.20;36.70;;;;;;5034044;28;20371;-69
2021/04/16 13:41:33;;;;;;;9.00;3.55;;;19.20;37.00;;;;;;5031023;28;20025;-69
2021/04/16 13:43:59;;;;;;;7.20;4.07;;;19.20;38.80;;;;;;5032457;28;20029;-68
2021/04/16 13:46:28;;;;;;;6.47;3.70;;;19.10;39.90;;;;;;5032509;28;20017;-69
2021/04/16 13:48:55;;;;;;;11.55;4.22;;;18.90;40.70;;;;;;5032537;28;20103;-69
2021/04/16 13:51:23;;;;;;;9.75;3.88;;;18.90;41.40;;;;;;5032595;28;20530;-68
2021/04/16 13:53:49;;;;;;;11.82;4.65;;;18.90;41.30;;;;;;5032890;28;20029;-70
2021/04/16 13:56:17;;;;;;;9.38;3.90;;;19.00;41.10;;;;;;5031471;28;20056;-71
2021/04/16 13:58:43;;;;;;;8.10;4.20;;;19.20;41.10;;;;;;5032585;28;20052;-69
2021/04/16 14:01:10;;;;;;;8.65;4.30;;;19.40;41.40;;;;;;5032672;28;20108;-70
2021/04/16 14:03:40;;;;;;;6.82;4.38;;;19.50;41.60;;;;;;5032718;28;20064;-72
2021/04/16 14:06:16;;;;;;;9.32;4.35;;;19.60;41.90;;;;;;5032494;28;20030;-70
2021/04/16 14:08:58;;;;;;;8.05;4.82;;;19.40;42.10;;;;;;5032573;28;20030;-69
2021/04/16 14:11:23;;;;;;;9.35;4.53;;;19.20;42.40;;;;;;5032568;28;20497;-70
2021/04/16 14:13:49;;;;;;;8.68;4.80;;;19.10;42.70;;;;;;5032457;28;20068;-68
2021/04/16 14:16:42;;;;;;;9.23;4.65;;;19.00;43.00;;;;;;5032689;28;20104;-68
2021/04/16 14:19:19;;;;;;;8.35;4.82;;;18.90;43.40;;;;;;5034103;28;20041;-69
2021/04/16 14:21:47;;;;;;;8.75;4.50;;;18.90;42.60;;;;;;5036339;28;20049;-68
2021/04/16 14:24:14;;;;;;;9.57;4.68;;;19.00;43.50;;;;;;5036491;28;20052;-69
2021/04/16 14:26:42;;;;;;;8.98;4.97;;;19.00;43.40;;;;;;5036248;28;20352;-69
2021/04/16 14:29:08;;;;;;;9.13;4.63;;;19.00;43.30;;;;;;5036314;28;20083;-67
2021/04/16 14:31:43;;;;;;;8.40;4.65;;;18.90;43.40;;;;;;5036018;28;20505;-68
2021/04/16 14:34:14;;;;;;;8.43;4.93;;;18.80;42.60;;;;;;5036185;28;20037;-70
2021/04/16 14:36:40;;;;;;;9.00;4.40;;;18.70;43.80;;;;;;5036449;28;20018;-68
2021/04/16 14:39:07;;;;;;;9.73;5.00;;;18.70;43.70;;;;;;5036218;28;20032;-69
2021/04/16 14:41:35;;;;;;;7.75;4.07;;;18.70;43.70;;;;;;5035984;28;20014;-69
2021/04/16 14:44:02;;;;;;;8.32;4.55;;;18.80;43.50;;;;;;5034744;28;20029;-69
2021/04/16 14:46:27;;;;;;;9.50;4.00;;;19.00;43.40;;;;;;5035854;28;20058;-69
2021/04/16 14:48:54;;;;;;;8.80;4.25;;;19.00;43.20;;;;;;5035800;28;20055;-68
2021/04/16 14:51:22;;;;;;;8.10;4.47;;;19.10;43.10;;;;;;5036088;28;20022;-69
2021/04/16 14:54:37;;;;;;;;;;;;;;;;;;;;;
2021/04/16 14:57:07;;;;;;;9.18;4.25;;;19.00;42.20;;;;;;5018070;28;20389;-69
2021/04/16 14:59:38;;;;;;;8.80;4.15;;;19.10;42.90;;;;;;5035840;28;20463;-69
2021/04/16 15:02:07;;;;;;;9.27;4.03;;;19.20;43.10;;;;;;5036058;28;20087;-69
2021/04/16 15:04:33;;;;;;;9.75;4.50;;;19.10;43.00;;;;;;5035908;28;20033;-68
2021/04/16 15:07:02;;;;;;;7.35;4.30;;;19.00;43.30;;;;;;5035753;28;20030;-70
2021/04/16 15:09:41;;;;;;;8.50;4.55;;;18.90;43.40;;;;;;5035466;28;20053;-68
2021/04/16 15:12:11;;;;;;;7.57;4.38;;;18.70;42.70;;;;;;5035305;28;20043;-69
2021/04/16 15:14:38;;;;;;;12.85;3.95;;;18.60;43.80;;;;;;5035040;28;20109;-68